Time;durP1;ratioP1;P1;durP2;ratioP2;P2;SDS_P1;SDS_P2;PMS_P1;PMS_P2;Temp;Humidity;BMP_temperature;BMP_pressure;BME280_temperature;BME280_humidity;BME280_pressure;Samples;Min_cycle;Max_cycle;Signal;HPM_P1;HPM_P2
2022/11/14 07:26:06;;;;;;;;;4.00;4.00;;;;;17.80;56.46;100940.22;5076119;27;45732;-84
2022/11/14 07:28:33;;;;;;;;;5.50;4.00;;;;;18.11;56.90;100935.03;5062971;27;45934;-89
2022/11/14 07:31:01;;;;;;;;;4.33;4.33;;;;;18.59;57.40;100948.97;5064469;27;46420;-87
2022/11/14 07:33:26;;;;;;;;;3.00;3.00;;;;;19.15;57.55;100940.69;5070475;27;45868;-82
2022/11/14 07:35:51;;;;;;;;;5.00;3.33;;;;;19.71;57.50;100938.50;5062288;28;46214;-82
2022/11/14 07:38:17;;;;;;;;;4.00;3.00;;;;;20.19;56.63;100944.13;5059911;28;45432;-78
2022/11/14 07:40:42;;;;;;;;;3.33;3.33;;;;;20.63;56.89;100946.34;5064314;28;53867;-80
2022/11/14 07:43:07;;;;;;;;;4.00;4.00;;;;;21.08;55.91;100950.25;5063838;27;45705;-79
2022/11/14 07:45:32;;;;;;;;;3.67;3.67;;;;;21.41;56.08;100941.75;5067788;27;59237;-77
2022/11/14 07:48:00;;;;;;;;;2.33;2.33;;;;;21.70;55.52;100940.75;5066818;27;46389;-80
2022/11/14 07:50:28;;;;;;;;;4.00;4.00;;;;;21.94;55.44;100934.78;5065170;28;45487;-79
2022/11/14 07:52:54;;;;;;;;;2.00;2.00;;;;;22.20;55.08;100938.59;5070561;28;45608;-80
2022/11/14 07:55:20;;;;;;;;;4.00;2.00;;;;;22.38;54.38;100931.31;5070837;28;45283;-79
2022/11/14 07:57:47;;;;;;;;;2.33;2.33;;;;;22.54;54.40;100937.88;5070510;28;45454;-79
2022/11/14 08:00:13;;;;;;;;;5.00;3.00;;;;;22.70;54.21;100937.16;5065819;27;45666;-78
2022/11/14 08:02:38;;;;;;;;;4.33;3.00;;;;;22.81;53.90;100927.91;5070041;28;45509;-75
2022/11/14 08:05:04;;;;;;;;;3.00;3.00;;;;;22.94;53.85;100938.34;5065644;27;47163;-76
2022/11/14 08:07:29;;;;;;;;;3.00;3.00;;;;;23.03;53.31;100925.69;5059994;28;45648;-79
2022/11/14 08:09:55;;;;;;;;;3.67;3.67;;;;;23.16;53.37;100936.06;5068913;28;45478;-80
2022/11/14 08:12:20;;;;;;;;;3.00;3.00;;;;;23.28;53.26;100945.63;5065013;27;45537;-79
2022/11/14 08:14:45;;;;;;;;;3.00;3.00;;;;;23.41;53.27;100934.38;5069102;27;50914;-80
2022/11/14 08:17:11;;;;;;;;;4.33;2.67;;;;;23.56;53.06;100941.88;5069668;27;45415;-78
2022/11/14 08:19:36;;;;;;;;;2.67;2.67;;;;;23.69;53.07;100933.25;5059376;28;46427;-76
2022/11/14 08:22:01;;;;;;;;;3.67;2.00;;;;;23.82;52.60;100940.91;5068411;28;45347;-77
2022/11/14 08:24:26;;;;;;;;;4.67;3.33;;;;;23.97;52.68;100938.41;5063993;27;58357;-76
2022/11/14 08:26:52;;;;;;;;;3.00;2.00;;;;;24.11;52.43;100939.63;5050538;28;58949;-79
2022/11/14 08:29:17;;;;;;;;;3.67;3.00;;;;;24.26;52.32;100937.13;5050496;28;46316;-78
2022/11/14 08:31:44;;;;;;;;;4.67;4.00;;;;;24.43;52.30;100943.41;5054195;28;50001;-78
2022/11/14 08:34:10;;;;;;;;;5.33;4.00;;;;;24.57;52.21;100938.31;5061537;28;45574;-78
2022/11/14 08:36:35;;;;;;;;;3.00;3.00;;;;;24.68;51.81;100942.53;5041972;28;45518;-77
2022/11/14 08:39:00;;;;;;;;;3.33;3.00;;;;;24.76;51.61;100934.38;5037525;28;45359;-77
2022/11/14 08:41:26;;;;;;;;;2.67;2.67;;;;;24.83;51.62;100938.13;5036864;28;45312;-77
2022/11/14 08:43:51;;;;;;;;;4.00;3.00;;;;;24.92;51.71;100932.66;5037725;28;45804;-79
2022/11/14 08:46:16;;;;;;;;;4.33;3.33;;;;;25.00;51.59;100938.09;5052271;28;48266;-75
2022/11/14 08:48:42;;;;;;;;;3.00;3.00;;;;;25.05;51.22;100943.84;5041399;28;50440;-74
2022/11/14 08:51:07;;;;;;;;;4.00;3.33;;;;;25.09;51.12;100942.47;5037192;28;45450;-75
2022/11/14 08:53:33;;;;;;;;;3.00;3.00;;;;;25.15;51.34;100954.50;5038522;28;46022;-75
2022/11/14 08:55:58;;;;;;;;;4.00;4.00;;;;;25.17;50.60;100948.91;5046537;28;45813;-76
2022/11/14 08:58:28;;;;;;;;;2.00;2.00;;;;;25.20;50.75;100952.13;5055199;28;45692;-75
2022/11/14 09:00:54;;;;;;;;;3.00;3.00;;;;;25.23;50.66;100943.63;5057158;28;45513;-75
2022/11/14 09:03:19;;;;;;;;;4.67;3.00;;;;;25.28;50.37;100951.25;5052984;28;46002;-75
2022/11/14 09:05:50;;;;;;;;;3.00;3.00;;;;;25.33;50.60;100948.84;5052169;28;45400;-76
2022/11/14 09:08:15;;;;;;;;;3.67;3.67;;;;;25.36;50.66;100948.50;5048402;28;45553;-76
2022/11/14 09:10:41;;;;;;;;;3.00;3.00;;;;;25.42;50.35;100952.38;5051378;28;45474;-76
2022/11/14 09:13:06;;;;;;;;;4.00;2.00;;;;;25.48;50.31;100945.38;5043343;28;65789;-76
2022/11/14 09:15:32;;;;;;;;;2.67;2.67;;;;;25.50;49.92;100948.78;5048969;28;45414;-75
2022/11/14 09:17:58;;;;;;;;;4.00;3.00;;;;;25.53;49.87;100952.00;5052429;28;45684;-78
2022/11/14 09:20:24;;;;;;;;;3.00;3.00;;;;;25.57;49.94;100955.22;5049365;28;45489;-76
2022/11/14 09:22:52;;;;;;;;;5.00;4.00;;;;;25.56;50.33;100949.97;5058690;27;45674;-76
2022/11/14 09:25:20;;;;;;;;;1.67;1.67;;;;;25.57;50.14;100948.94;5051694;28;45465;-77
2022/11/14 09:27:46;;;;;;;;;4.00;3.00;;;;;25.56;49.30;100956.25;5051349;28;45403;-77
2022/11/14 09:30:12;;;;;;;;;3.67;3.67;;;;;25.48;49.38;100953.53;5056811;28;45264;-75
2022/11/14 09:32:38;;;;;;;;;2.33;2.33;;;;;25.40;49.57;100951.69;5055736;28;46652;-75
2022/11/14 09:35:03;;;;;;;;;2.33;2.33;;;;;25.38;49.48;100953.75;5055906;28;59872;-76
2022/11/14 09:37:29;;;;;;;;;2.67;2.00;;;;;25.40;49.11;100949.00;5050813;28;45426;-75
2022/11/14 09:39:54;;;;;;;;;3.33;3.33;;;;;25.43;48.86;100939.63;5053443;28;45323;-77
2022/11/14 09:42:41;;;;;;;;;4.33;4.33;;;;;25.46;49.10;100948.28;5055790;28;49085;-75
2022/11/14 09:45:11;;;;;;;;;3.33;2.33;;;;;25.44;48.83;100946.75;5053210;28;45921;-75
2022/11/14 09:47:45;;;;;;;;;3.33;3.33;;;;;25.44;48.56;100944.03;5031461;28;45862;-75
2022/11/14 09:50:14;;;;;;;;;6.00;3.00;;;;;25.44;48.90;100938.59;5051477;28;45708;-76
2022/11/14 09:52:46;;;;;;;;;4.00;3.00;;;;;25.47;48.99;100947.25;5048235;28;45625;-76
2022/11/14 09:55:20;;;;;;;;;2.33;2.33;;;;;25.49;48.69;100933.47;5056620;28;45480;-76
2022/11/14 09:57:46;;;;;;;;;2.00;2.00;;;;;25.50;48.67;100944.19;5055490;28;45471;-76
2022/11/14 10:00:21;;;;;;;;;2.00;2.00;;;;;25.51;48.68;100943.16;5041995;28;45349;-77
2022/11/14 10:02:53;;;;;;;;;4.00;3.00;;;;;25.55;48.71;100949.13;5053775;28;46240;-76
2022/11/14 10:05:43;;;;;;;;;3.00;3.00;;;;;25.56;48.57;100945.38;5048490;28;45403;-76
2022/11/14 10:08:14;;;;;;;;;4.33;4.00;;;;;25.58;48.51;100954.19;5046507;28;45308;-75
2022/11/14 10:10:51;;;;;;;;;2.00;2.00;;;;;25.59;48.12;100960.50;5051809;28;45535;-74
2022/11/14 10:13:50;;;;;;;;;3.00;3.00;;;;;25.59;48.00;100952.34;5050115;28;45405;-73
2022/11/14 10:16:26;;;;;;;;;3.00;3.00;;;;;25.59;47.97;100944.19;5044135;28;45461;-74
2022/11/14 10:19:06;;;;;;;;;2.00;2.00;;;;;25.65;48.25;100943.47;5041969;28;45686;-74
2022/11/14 10:22:00;;;;;;;;;5.67;3.33;;;;;25.73;47.91;100942.56;5053535;28;45408;-75
2022/11/14 10:24:42;;;;;;;;;2.00;2.00;;;;;25.78;48.00;100940.16;5073041;28;45608;-74
2022/11/14 10:27:32;;;;;;;;;3.33;2.00;;;;;25.80;48.14;100935.41;5068407;27;45930;-77
2022/11/14 10:30:14;;;;;;;;;3.00;3.00;;;;;25.82;48.11;100933.34;5071103;27;45613;-78
2022/11/14 10:32:45;;;;;;;;;3.67;3.67;;;;;25.84;47.51;100927.72;5066115;28;45548;-78
2022/11/14 10:35:18;;;;;;;;;3.00;3.00;;;;;25.86;48.03;100925.66;5073862;28;45528;-78
2022/11/14 10:37:43;;;;;;;;;2.33;2.33;;;;;25.89;48.15;100920.72;5072673;28;45418;-76
2022/11/14 10:40:19;;;;;;;;;2.67;2.67;;;;;25.91;47.83;100906.94;5072137;28;45296;-78
2022/11/14 10:42:49;;;;;;;;;3.00;3.00;;;;;25.92;47.70;100906.75;5072487;28;45479;-76
2022/11/14 10:45:24;;;;;;;;;2.67;2.67;;;;;25.93;47.38;100899.47;5070039;27;45378;-77
2022/11/14 10:48:07;;;;;;;;;2.67;2.67;;;;;25.90;47.11;100899.81;5071467;27;45811;-77
2022/11/14 10:50:44;;;;;;;;;3.00;3.00;;;;;25.90;47.26;100900.66;5068633;28;45542;-77
2022/11/14 10:53:37;;;;;;;;;2.00;2.00;;;;;25.90;47.44;100905.25;5072315;28;45414;-76
2022/11/14 10:56:03;;;;;;;;;3.00;3.00;;;;;25.90;47.35;100899.81;5073237;28;45517;-76
2022/11/14 10:58:28;;;;;;;;;2.33;2.33;;;;;25.90;47.09;100900.66;5068075;28;45414;-75
2022/11/14 11:00:53;;;;;;;;;2.67;2.67;;;;;25.91;47.14;100893.34;5052787;28;45472;-76
2022/11/14 11:03:19;;;;;;;;;5.00;3.00;;;;;25.90;46.94;100886.22;5024102;28;45414;-77
2022/11/14 11:05:55;;;;;;;;;4.33;3.00;;;;;25.95;47.49;100883.78;5017956;28;45573;-75
2022/11/14 11:11:30;;;;;;;;;3.00;3.00;;;;;26.04;46.79;100888.16;5032902;28;45519;-77
2022/11/14 11:13:58;;;;;;;;;2.67;2.67;;;;;26.07;46.86;100895.09;5027381;28;45464;-76
2022/11/14 11:16:26;;;;;;;;;2.00;2.00;;;;;26.09;46.71;100884.91;5017884;28;46117;-76
2022/11/14 11:18:52;;;;;;;;;2.67;2.67;;;;;26.12;46.85;100887.22;5025225;28;45397;-76
2022/11/14 11:21:19;;;;;;;;;4.00;2.67;;;;;26.14;47.10;100879.75;5034135;28;45505;-77
2022/11/14 11:23:53;;;;;;;;;3.00;3.00;;;;;26.15;46.76;100878.72;5030855;28;45791;-73
2022/11/14 11:26:27;;;;;;;;;2.67;2.67;;;;;26.16;46.98;100876.84;5049043;28;45519;-73
2022/11/14 11:29:10;;;;;;;;;3.67;3.00;;;;;26.12;46.77;100868.19;5045711;28;45806;-71
2022/11/14 11:31:51;;;;;;;;;7.33;5.33;;;;;26.09;46.13;100865.84;5051497;28;45509;-76
2022/11/14 11:34:23;;;;;;;;;4.33;4.00;;;;;26.02;46.59;100859.44;5050825;28;45562;-76
2022/11/14 11:37:12;;;;;;;;;4.33;3.33;;;;;25.98;46.12;100860.81;5053660;28;45415;-74
2022/11/14 11:39:46;;;;;;;;;4.00;4.00;;;;;25.92;46.44;100852.38;5044343;28;45458;-76
2022/11/14 11:42:20;;;;;;;;;5.00;3.33;;;;;25.91;46.25;100842.53;5045649;28;45451;-76
2022/11/14 11:44:54;;;;;;;;;4.00;3.00;;;;;25.91;46.65;100844.41;5052140;28;45382;-76
2022/11/14 11:47:20;;;;;;;;;4.67;4.67;;;;;25.95;46.52;100842.19;5046118;28;45750;-77
2022/11/14 11:49:47;;;;;;;;;3.33;3.00;;;;;25.99;46.60;100840.78;5043939;28;45860;-76
2022/11/14 11:52:22;;;;;;;;;3.33;3.33;;;;;26.03;46.26;100842.94;5043449;28;45475;-75
2022/11/14 11:55:19;;;;;;;;;2.33;2.33;;;;;26.05;46.63;100831.88;5047508;28;45523;-73
2022/11/14 11:57:50;;;;;;;;;5.33;4.00;;;;;26.06;46.42;100825.41;5044152;28;45410;-73
2022/11/14 12:00:22;;;;;;;;;5.67;4.00;;;;;26.04;45.91;100822.88;5047162;28;45832;-73
2022/11/14 12:02:50;;;;;;;;;4.00;3.00;;;;;26.02;46.26;100815.94;5053467;28;45494;-73
2022/11/14 12:05:24;;;;;;;;;4.00;4.00;;;;;26.00;46.03;100810.66;5053534;28;45372;-73
2022/11/14 12:07:59;;;;;;;;;3.33;3.33;;;;;26.00;45.87;100812.56;5048285;28;46317;-73
2022/11/14 12:10:29;;;;;;;;;4.67;3.00;;;;;26.02;45.90;100811.34;5046881;28;45454;-73
2022/11/14 12:13:21;;;;;;;;;2.67;2.67;;;;;26.03;46.27;100810.31;5049830;28;45478;-73
2022/11/14 12:15:53;;;;;;;;;3.33;3.33;;;;;26.00;46.13;100796.25;5051441;28;45464;-73
2022/11/14 12:18:34;;;;;;;;;6.33;5.00;;;;;25.98;46.07;100796.41;5050667;28;50227;-73
2022/11/14 12:21:11;;;;;;;;;4.00;2.67;;;;;25.99;45.66;100789.13;5042944;28;45555;-73
2022/11/14 12:23:59;;;;;;;;;2.67;2.67;;;;;26.02;45.59;100777.84;5040880;28;45457;-72
2022/11/14 12:27:01;;;;;;;;;4.00;4.00;;;;;26.08;45.62;100782.56;5044363;28;45576;-75
2022/11/14 12:29:32;;;;;;;;;3.33;3.33;;;;;26.15;45.61;100782.66;5041477;28;46188;-74
2022/11/14 12:32:05;;;;;;;;;8.00;4.00;;;;;26.22;45.81;100777.31;5040689;28;45396;-74
2022/11/14 12:34:33;;;;;;;;;3.67;2.67;;;;;26.26;45.99;100768.66;5042070;28;45375;-75
2022/11/14 12:36:59;;;;;;;;;3.67;2.67;;;;;26.27;46.08;100764.03;5042496;28;45412;-75
2022/11/14 12:39:28;;;;;;;;;3.33;3.33;;;;;26.34;45.82;100778.59;5044839;27;46115;-75
2022/11/14 12:42:13;;;;;;;;;3.00;3.00;;;;;26.38;45.60;100774.47;5040993;28;45699;-74
2022/11/14 12:44:39;;;;;;;;;4.67;4.67;;;;;26.41;45.62;100775.97;5045280;28;45445;-75
2022/11/14 12:47:04;;;;;;;;;6.00;4.33;;;;;26.44;45.93;100771.00;5038368;28;45964;-75
2022/11/14 12:49:48;;;;;;;;;3.33;3.33;;;;;26.49;45.76;100758.69;5043094;28;46287;-74
2022/11/14 12:52:53;;;;;;;;;6.33;4.67;;;;;26.52;45.21;100763.78;5045397;28;45814;-74
2022/11/14 12:55:21;;;;;;;;;2.67;2.67;;;;;26.54;45.25;100761.69;5044474;28;45981;-75
2022/11/14 12:58:06;;;;;;;;;3.00;3.00;;;;;26.56;45.32;100754.19;5051521;28;45490;-74
2022/11/14 13:00:36;;;;;;;;;3.67;3.00;;;;;26.59;45.54;100756.53;5056762;28;45430;-75
2022/11/14 13:03:18;;;;;;;;;2.33;0.67;;;;;26.62;45.19;100753.44;5047942;28;45705;-76
2022/11/14 13:06:04;;;;;;;;;4.00;4.00;;;;;26.63;45.63;100746.09;5047236;28;45478;-75
2022/11/14 13:09:01;;;;;;;;;4.33;4.33;;;;;26.63;45.21;100743.38;5055469;28;45447;-76
2022/11/14 13:22:45;;;;;;;;;4.00;4.00;;;;;26.61;44.82;100731.84;5056754;28;45521;-87
2022/11/14 13:25:10;;;;;;;;;3.00;3.00;;;;;26.58;45.35;100733.06;5050438;28;45513;-84
2022/11/14 13:27:36;;;;;;;;;3.00;3.00;;;;;26.54;44.82;100734.47;5039719;28;45516;-76
2022/11/14 13:30:06;;;;;;;;;5.00;3.67;;;;;26.52;45.11;100739.28;5050354;28;45741;-79
2022/11/14 13:32:41;;;;;;;;;4.00;4.00;;;;;26.50;44.99;100725.88;5049081;28;45345;-74
2022/11/14 13:35:14;;;;;;;;;4.00;4.00;;;;;26.48;45.54;100725.19;5047878;28;45391;-77
2022/11/14 13:38:10;;;;;;;;;4.00;4.00;;;;;26.47;44.85;100719.94;5051786;28;45320;-79
2022/11/14 13:40:47;;;;;;;;;3.67;3.67;;;;;26.45;45.01;100720.16;5056483;28;45319;-77
2022/11/14 13:43:42;;;;;;;;;5.67;4.00;;;;;26.46;45.65;100716.38;5054589;28;46224;-76
2022/11/14 13:46:14;;;;;;;;;2.50;2.50;;;;;26.50;45.74;100717.69;5066031;28;45658;-80
2022/11/14 13:48:53;;;;;;;;;4.33;4.33;;;;;26.52;45.25;100704.72;5056603;27;46598;-79
2022/11/14 13:51:21;;;;;;;;;3.00;3.00;;;;;26.54;45.53;100707.28;5069029;28;45526;-76
2022/11/14 13:53:46;;;;;;;;;4.00;4.00;;;;;26.58;45.18;100706.69;5070817;27;45638;-78
2022/11/14 13:56:34;;;;;;;;;3.00;3.00;;;;;26.64;45.08;100706.97;5070423;27;45710;-77
2022/11/14 13:59:47;;;;;;;;;5.00;5.00;;;;;26.73;45.54;100703.09;5070964;28;45691;-77
2022/11/14 14:02:25;;;;;;;;;2.00;2.00;;;;;26.80;45.51;100692.28;4972436;28;45549;-77
2022/11/14 14:05:21;;;;;;;;;3.00;3.00;;;;;26.85;45.42;100684.38;4973667;28;47358;-77
2022/11/14 14:08:09;;;;;;;;;3.00;3.00;;;;;26.89;44.93;100688.41;4975014;28;45573;-77
2022/11/14 14:11:01;;;;;;;;;2.00;2.00;;;;;26.87;44.57;100681.47;4978337;28;45631;-77
2022/11/14 14:13:44;;;;;;;;;3.00;3.00;;;;;26.83;44.74;100683.75;4974036;28;45450;-79
2022/11/14 14:16:24;;;;;;;;;3.67;3.67;;;;;26.76;44.90;100671.94;4973609;28;45618;-76
2022/11/14 14:19:15;;;;;;;;;3.00;3.00;;;;;26.77;45.25;100679.06;4997711;28;45607;-79
2022/11/14 14:22:03;;;;;;;;;4.33;4.33;;;;;26.74;45.11;100683.03;4975741;28;45380;-82
2022/11/14 14:24:53;;;;;;;;;3.67;3.67;;;;;26.74;45.01;100682.16;4965346;28;45549;-80
2022/11/14 14:27:33;;;;;;;;;4.00;4.00;;;;;26.72;45.41;100673.34;4969038;28;45422;-79
2022/11/14 14:30:08;;;;;;;;;4.00;3.33;;;;;26.70;45.27;100670.81;4973136;28;45510;-80
2022/11/14 14:32:34;;;;;;;;;3.33;3.33;;;;;26.69;45.53;100669.16;4963681;28;45445;-79
2022/11/14 14:35:23;;;;;;;;;4.00;4.00;;;;;26.73;45.39;100673.13;4971021;28;45823;-79
2022/11/14 14:37:50;;;;;;;;;4.00;4.00;;;;;26.74;45.54;100684.88;5011718;28;47995;-80
2022/11/14 14:40:32;;;;;;;;;4.00;4.00;;;;;26.73;44.95;100681.31;5053925;28;45495;-83
2022/11/14 14:43:00;;;;;;;;;4.33;4.33;;;;;26.72;45.48;100685.06;5042686;28;45488;-81
2022/11/14 14:45:28;;;;;;;;;4.00;4.00;;;;;26.73;45.48;100677.75;5055211;28;45455;-78
2022/11/14 14:48:10;;;;;;;;;6.67;5.00;;;;;26.76;44.89;100685.56;5048844;28;46150;-76
2022/11/14 14:50:51;;;;;;;;;5.00;5.00;;;;;26.77;44.89;100687.22;5045240;28;45748;-79
2022/11/14 14:53:22;;;;;;;;;8.00;5.00;;;;;26.72;45.48;100679.63;5036842;28;45799;-81
2022/11/14 14:56:00;;;;;;;;;4.33;4.00;;;;;26.75;45.50;100686.56;5037345;28;45877;-80
2022/11/14 14:58:29;;;;;;;;;3.67;3.67;;;;;26.75;45.55;100698.31;5035646;28;47565;-79
2022/11/14 15:01:08;;;;;;;;;3.33;3.33;;;;;26.75;45.57;100692.00;5053708;28;46064;-73
2022/11/14 15:03:43;;;;;;;;;3.67;3.67;;;;;26.77;45.19;100685.34;5035182;28;45495;-74
2022/11/14 15:06:37;;;;;;;;;6.00;3.00;;;;;26.83;45.19;100687.31;5039738;28;45699;-87
2022/11/14 15:09:21;;;;;;;;;12.00;10.67;;;;;26.87;45.36;100684.19;5035628;28;46860;-86
2022/11/14 15:11:50;;;;;;;;;10.67;9.67;;;;;26.83;45.02;100681.00;5037689;28;45468;-81
2022/11/14 15:14:25;;;;;;;;;6.67;6.67;;;;;26.73;44.63;100684.03;5036436;28;45435;-85
2022/11/14 15:16:52;;;;;;;;;9.67;8.00;;;;;26.63;44.02;100678.91;5049612;28;45624;-79
2022/11/14 15:19:23;;;;;;;;;10.00;8.33;;;;;26.49;44.15;100677.06;5039836;28;45483;-77
2022/11/14 15:22:09;;;;;;;;;7.67;6.67;;;;;26.37;44.09;100674.84;5034236;28;45722;-79
2022/11/14 15:24:35;;;;;;;;;9.33;8.67;;;;;26.35;44.00;100679.59;5034850;28;45508;-79
2022/11/14 15:27:04;;;;;;;;;9.00;7.67;;;;;26.35;44.23;100674.16;5035360;28;45454;-81
2022/11/14 15:29:31;;;;;;;;;7.00;7.00;;;;;26.36;44.46;100673.13;5035167;28;45663;-78
2022/11/14 15:32:00;;;;;;;;;9.33;8.00;;;;;26.39;44.08;100663.75;5041773;28;46682;-81
2022/11/14 15:34:26;;;;;;;;;6.00;6.00;;;;;26.43;44.51;100679.50;5050370;28;45445;-78
2022/11/14 15:37:19;;;;;;;;;8.33;8.00;;;;;26.48;43.90;100676.19;5039929;28;45522;-82
2022/11/14 15:39:45;;;;;;;;;8.33;8.33;;;;;26.52;44.51;100672.06;5046884;28;45854;-77
2022/11/14 15:42:25;;;;;;;;;8.33;7.00;;;;;26.55;44.41;100676.28;5034426;28;45475;-77
2022/11/14 15:44:51;;;;;;;;;8.67;7.67;;;;;26.58;43.84;100678.63;5040249;28;45459;-78
2022/11/14 15:47:45;;;;;;;;;7.00;7.00;;;;;26.57;44.45;100683.22;5047703;28;45747;-79
2022/11/14 15:50:11;;;;;;;;;8.00;8.00;;;;;26.56;43.83;100686.13;5036384;28;46156;-82
2022/11/14 15:52:49;;;;;;;;;7.00;7.00;;;;;26.54;43.91;100680.91;5045562;28;45485;-79
2022/11/14 15:55:17;;;;;;;;;10.33;8.67;;;;;26.49;44.37;100677.91;5055468;28;45475;-77
2022/11/14 15:57:43;;;;;;;;;8.67;7.33;;;;;26.45;43.81;100682.03;5043132;28;45408;-78
2022/11/14 16:00:12;;;;;;;;;7.00;6.67;;;;;26.42;44.04;100686.00;5049541;28;51891;-75
2022/11/14 16:02:44;;;;;;;;;7.33;7.33;;;;;26.40;43.75;100689.94;5046386;28;45490;-76
2022/11/14 16:05:12;;;;;;;;;9.00;7.67;;;;;26.37;44.33;100690.31;5048910;28;45400;-76
2022/11/14 16:07:38;;;;;;;;;5.67;5.67;;;;;26.31;44.41;100681.88;5039156;28;45410;-75
2022/11/14 16:10:13;;;;;;;;;8.33;7.67;;;;;26.35;44.17;100681.50;5037719;28;45350;-77
2022/11/14 16:12:38;;;;;;;;;9.00;7.33;;;;;26.36;44.04;100689.44;5043696;28;45491;-80
2022/11/14 16:15:04;;;;;;;;;9.00;7.33;;;;;26.35;44.46;100692.38;5039586;28;45601;-78
2022/11/14 16:17:38;;;;;;;;;7.33;7.33;;;;;26.37;43.81;100691.16;5043422;28;45723;-77
2022/11/14 16:20:06;;;;;;;;;7.00;5.33;;;;;26.40;44.32;100690.75;5041661;28;46325;-78
2022/11/14 16:22:32;;;;;;;;;6.67;6.67;;;;;26.42;44.43;100690.56;5047167;28;47000;-78
2022/11/14 16:25:01;;;;;;;;;9.67;8.00;;;;;26.44;43.89;100694.78;5043234;28;45907;-77
2022/11/14 16:27:26;;;;;;;;;10.33;10.00;;;;;26.45;44.25;100692.94;5049982;28;45517;-76
2022/11/14 16:29:52;;;;;;;;;10.00;8.00;;;;;26.48;44.07;100686.25;5043220;28;45822;-77
2022/11/14 16:32:19;;;;;;;;;6.00;6.00;;;;;26.50;43.84;100690.47;5042329;28;45616;-76
2022/11/14 16:34:44;;;;;;;;;6.00;6.00;;;;;26.49;44.31;100693.38;5049332;28;45712;-77
2022/11/14 16:37:11;;;;;;;;;7.33;5.67;;;;;26.49;44.41;100688.81;5037641;28;45434;-77
2022/11/14 17:44:16;;;;;;;;;13.00;9.67;;;;;20.64;46.77;100690.03;5014926;28;45895;-71
2022/11/14 17:46:41;;;;;;;;;12.33;8.00;;;;;20.86;47.11;100695.16;4995020;28;45587;-73
2022/11/14 17:49:07;;;;;;;;;8.67;6.33;;;;;21.24;47.67;100698.59;5004909;28;45586;-77
2022/11/14 17:51:32;;;;;;;;;14.33;10.00;;;;;21.69;47.99;100698.63;5010479;28;45375;-80
2022/11/14 17:53:57;;;;;;;;;10.33;8.33;;;;;22.14;47.82;100683.25;5009970;28;46636;-87
2022/11/14 17:56:24;;;;;;;;;11.00;11.00;;;;;22.55;47.79;100696.16;5005827;28;45470;-87
2022/11/14 17:58:51;;;;;;;;;9.67;5.67;;;;;22.95;47.64;100696.44;4999735;28;45460;-75
2022/11/14 18:01:20;;;;;;;;;16.00;13.33;;;;;23.30;47.46;100699.03;5009131;28;45823;-76
2022/11/14 18:03:45;;;;;;;;;16.33;15.00;;;;;23.60;47.29;100701.25;4998551;28;45563;-76
2022/11/14 18:06:14;;;;;;;;;11.67;11.67;;;;;23.84;47.19;100702.25;5008773;28;45384;-82
2022/11/14 18:08:39;;;;;;;;;14.67;14.67;;;;;23.99;46.97;100699.69;4994367;28;45815;-83
2022/11/14 18:11:08;;;;;;;;;14.33;14.00;;;;;24.19;46.90;100701.03;5010799;28;45381;-76
2022/11/14 18:13:34;;;;;;;;;16.33;14.00;;;;;24.32;46.71;100696.94;5008823;28;46958;-77
2022/11/14 18:16:01;;;;;;;;;17.00;13.67;;;;;24.48;46.64;100698.69;5005916;28;45498;-79
2022/11/14 18:18:28;;;;;;;;;21.00;17.33;;;;;24.59;46.58;100695.63;5009466;28;45325;-84
2022/11/14 18:20:53;;;;;;;;;16.00;15.00;;;;;24.69;46.56;100700.81;4991191;28;45407;-83
2022/11/14 18:23:18;;;;;;;;;21.33;15.00;;;;;24.82;46.26;100705.69;4996621;28;55028;-72
2022/11/14 18:25:43;;;;;;;;;23.00;19.33;;;;;24.91;46.51;100703.78;4998135;28;54074;-71
2022/11/14 18:28:09;;;;;;;;;20.50;20.00;;;;;24.96;46.53;100706.81;4991163;28;53317;-72
2022/11/14 18:30:34;;;;;;;;;21.00;18.33;;;;;25.06;46.23;100703.84;5011047;28;51665;-73
2022/11/14 18:32:59;;;;;;;;;22.33;19.33;;;;;25.13;46.28;100714.84;5007196;28;46042;-72
2022/11/14 18:35:25;;;;;;;;;22.67;19.00;;;;;25.23;45.93;100720.06;4992696;28;52917;-76
2022/11/14 18:37:50;;;;;;;;;20.67;20.00;;;;;25.31;45.77;100711.00;5003045;28;45471;-74
2022/11/14 18:40:16;;;;;;;;;19.67;18.33;;;;;25.39;45.79;100710.94;4998812;28;45505;-74
2022/11/14 18:42:41;;;;;;;;;18.00;16.00;;;;;25.42;45.73;100710.56;4990679;28;45494;-78
2022/11/14 19:39:29;;;;;;;;;18.00;14.50;;;;;20.38;47.57;100714.13;5106667;27;45801;-70
2022/11/14 19:41:55;;;;;;;;;16.75;14.50;;;;;20.59;48.54;100711.19;5109871;27;45614;-72
2022/11/14 19:44:20;;;;;;;;;18.25;16.25;;;;;20.98;48.59;100715.56;5104922;27;45529;-72
2022/11/14 19:46:45;;;;;;;;;16.67;13.00;;;;;21.41;48.62;100710.41;5108830;27;45489;-73
2022/11/14 19:49:11;;;;;;;;;18.00;14.25;;;;;21.85;48.61;100714.16;5107136;27;48401;-71
2022/11/14 19:51:36;;;;;;;;;17.67;12.33;;;;;22.25;48.37;100709.16;5106620;27;47835;-71
2022/11/14 19:54:02;;;;;;;;;13.33;12.67;;;;;22.61;48.53;100716.28;5103508;27;45518;-70
2022/11/14 19:56:27;;;;;;;;;16.50;15.75;;;;;22.95;48.56;100722.66;5107293;27;45474;-71
2022/11/14 19:58:55;;;;;;;;;15.33;12.00;;;;;23.25;48.24;100718.47;5106539;27;46015;-70
2022/11/14 20:01:25;;;;;;;;;17.67;14.00;;;;;23.51;48.04;100725.63;5108567;27;45380;-75
2022/11/14 20:03:56;;;;;;;;;13.00;13.00;;;;;23.75;47.78;100718.50;5111589;27;45432;-75
2022/11/14 20:06:23;;;;;;;;;16.33;14.67;;;;;23.97;47.34;100731.53;5107464;27;45448;-82
2022/11/14 20:08:49;;;;;;;;;18.33;15.00;;;;;24.13;47.29;100723.41;5098834;27;46183;-78
2022/11/14 20:11:15;;;;;;;;;17.00;14.67;;;;;24.30;47.16;100728.78;5110233;27;45455;-79
2022/11/14 20:13:42;;;;;;;;;12.00;10.67;;;;;24.40;47.20;100726.72;5109890;27;45581;-78
2022/11/14 20:16:13;;;;;;;;;14.00;13.00;;;;;24.51;47.03;100722.78;5106854;27;45516;-74
2022/11/14 20:18:39;;;;;;;;;17.33;14.00;;;;;24.58;46.40;100717.50;5106260;27;46649;-73
2022/11/14 20:21:07;;;;;;;;;14.33;13.00;;;;;24.64;46.85;100722.22;5111410;27;45349;-73
2022/11/14 20:23:34;;;;;;;;;15.33;13.67;;;;;24.69;46.76;100710.84;5109356;27;45339;-75
2022/11/14 20:25:59;;;;;;;;;15.00;12.67;;;;;24.83;46.51;100728.25;5105001;27;45650;-75
2022/11/14 20:28:25;;;;;;;;;12.00;12.00;;;;;24.89;46.59;100726.72;5109466;27;45885;-74
2022/11/14 20:30:51;;;;;;;;;13.00;12.67;;;;;24.98;46.46;100731.06;5111931;27;45398;-74
